createdAt,value
2023-03-06T00:00:35.578Z,10.77
2023-03-06T00:03:02.474Z,10.23
2023-03-06T00:05:29.355Z,9.88
2023-03-06T00:07:56.209Z,9.80
2023-03-06T00:10:25.576Z,10.10
2023-03-06T00:12:53.246Z,10.38
2023-03-06T00:15:20.545Z,10.07
2023-03-06T00:17:47.489Z,10.50
2023-03-06T00:20:15.069Z,10.52
2023-03-06T00:22:41.900Z,11.70
2023-03-06T00:25:12.656Z,11.93
2023-03-06T00:27:39.525Z,10.75
2023-03-06T00:30:07.043Z,12.48
2023-03-06T00:32:34.280Z,13.20
2023-03-06T00:35:02.072Z,11.98
2023-03-06T00:37:28.787Z,12.75
2023-03-06T00:39:55.828Z,13.60
2023-03-06T00:42:22.669Z,13.65
2023-03-06T00:44:51.162Z,13.60
2023-03-06T00:47:17.971Z,13.75
2023-03-06T00:49:44.992Z,13.38
2023-03-06T00:52:12.908Z,13.70
2023-03-06T00:54:39.961Z,13.23
2023-03-06T00:57:06.788Z,13.55
2023-03-06T00:59:33.467Z,13.40
2023-03-06T01:02:00.312Z,13.23
2023-03-06T01:04:27.473Z,12.68
2023-03-06T01:06:54.090Z,14.18
2023-03-06T01:09:20.968Z,14.55
2023-03-06T01:11:47.680Z,12.82
2023-03-06T01:14:14.418Z,13.10
2023-03-06T01:16:42.020Z,13.13
2023-03-06T01:19:09.669Z,13.52
2023-03-06T01:21:36.540Z,13.00
2023-03-06T01:24:03.336Z,11.73
2023-03-06T01:26:30.101Z,12.95
2023-03-06T01:28:57.512Z,14.07
2023-03-06T01:31:25.334Z,12.68
2023-03-06T01:33:52.573Z,14.32
2023-03-06T01:36:19.370Z,13.93
2023-03-06T01:38:46.053Z,13.23
2023-03-06T01:41:15.851Z,13.15
2023-03-06T01:43:46.394Z,13.15
2023-03-06T01:46:33.805Z,14.05
2023-03-06T01:49:08.260Z,13.93
2023-03-06T01:51:48.649Z,12.80
2023-03-06T01:54:19.553Z,12.63
2023-03-06T01:56:47.174Z,12.40
2023-03-06T01:59:14.622Z,12.73
2023-03-06T02:01:41.684Z,13.43
2023-03-06T02:04:08.914Z,12.90
2023-03-06T02:06:38.484Z,13.60
2023-03-06T02:09:06.402Z,14.07
2023-03-06T02:11:33.406Z,13.35
2023-03-06T02:14:00.408Z,12.80
2023-03-06T02:16:29.774Z,13.75
2023-03-06T02:18:58.812Z,13.00
2023-03-06T02:21:35.823Z,13.77
2023-03-06T02:24:13.609Z,13.65
2023-03-06T02:26:42.267Z,13.98
2023-03-06T02:29:09.719Z,13.15
2023-03-06T02:31:36.463Z,12.95
2023-03-06T02:34:23.479Z,13.00
2023-03-06T02:36:54.070Z,11.95
2023-03-06T02:39:23.094Z,12.70
2023-03-06T02:41:49.821Z,13.77
2023-03-06T02:44:17.893Z,13.50
2023-03-06T02:46:44.706Z,13.38
2023-03-06T02:49:11.542Z,12.23
2023-03-06T02:51:38.189Z,13.00
2023-03-06T02:54:05.938Z,12.77
2023-03-06T02:56:32.684Z,14.15
2023-03-06T02:58:59.420Z,13.15
2023-03-06T03:01:26.238Z,12.82
2023-03-06T03:03:53.110Z,13.27
2023-03-06T03:06:21.100Z,13.27
2023-03-06T03:08:48.937Z,13.20
2023-03-06T03:11:16.113Z,13.50
2023-03-06T03:13:44.399Z,13.23
2023-03-06T03:16:17.908Z,13.10
2023-03-06T03:18:44.957Z,13.02
2023-03-06T03:21:13.520Z,14.38
2023-03-06T03:23:40.809Z,13.75
2023-03-06T03:26:09.034Z,14.15
2023-03-06T03:28:37.842Z,12.52
2023-03-06T03:31:07.278Z,12.65
2023-03-06T03:33:34.705Z,12.88
2023-03-06T03:36:03.076Z,13.48
2023-03-06T03:38:30.355Z,13.70
2023-03-06T03:40:57.301Z,13.90
2023-03-06T03:43:24.320Z,13.80
2023-03-06T03:45:57.422Z,14.02
2023-03-06T03:48:24.494Z,12.77
2023-03-06T03:50:51.703Z,13.48
2023-03-06T03:53:20.165Z,12.90
2023-03-06T03:55:48.718Z,13.27
2023-03-06T03:58:17.774Z,12.32
2023-03-06T04:00:44.902Z,13.52
2023-03-06T04:03:14.328Z,13.60
2023-03-06T04:05:44.090Z,13.57
2023-03-06T04:08:13.590Z,13.43
2023-03-06T04:10:43.498Z,12.10
2023-03-06T04:13:11.884Z,11.70
2023-03-06T04:15:42.467Z,12.73
2023-03-06T04:18:10.183Z,13.57
2023-03-06T04:20:36.955Z,13.52
2023-03-06T04:23:05.439Z,13.68
2023-03-06T04:25:32.314Z,13.10
2023-03-06T04:28:01.958Z,18.58
2023-03-06T04:30:30.223Z,14.40
2023-03-06T04:32:57.447Z,17.90
2023-03-06T04:35:24.892Z,12.88
2023-03-06T04:37:58.010Z,14.20
2023-03-06T04:40:28.866Z,12.68
2023-03-06T04:42:59.605Z,12.93
2023-03-06T04:45:28.866Z,12.57
2023-03-06T04:47:56.206Z,13.55
2023-03-06T04:50:23.977Z,14.63
2023-03-06T04:52:51.538Z,14.15
2023-03-06T04:55:19.127Z,14.57
2023-03-06T04:57:47.153Z,15.10
2023-03-06T05:00:17.041Z,17.27
2023-03-06T05:02:44.478Z,16.85
2023-03-06T05:05:12.370Z,15.20
2023-03-06T05:07:39.758Z,14.85
2023-03-06T05:10:07.665Z,15.18
2023-03-06T05:12:37.816Z,15.38
2023-03-06T05:15:05.933Z,14.55
2023-03-06T05:17:32.674Z,14.68
2023-03-06T05:19:59.328Z,15.63
2023-03-06T05:22:26.046Z,14.93
2023-03-06T05:24:52.790Z,14.75
2023-03-06T05:27:19.462Z,13.38
2023-03-06T05:29:46.189Z,13.73
2023-03-06T05:32:12.976Z,13.82
2023-03-06T05:34:39.908Z,14.80
2023-03-06T05:37:06.603Z,15.30
2023-03-06T05:39:33.287Z,13.63
2023-03-06T05:41:59.966Z,15.07
2023-03-06T05:44:34.370Z,13.40
2023-03-06T05:47:01.554Z,12.93
2023-03-06T05:49:31.994Z,11.98
2023-03-06T05:51:58.668Z,11.38
2023-03-06T05:54:26.228Z,11.55
2023-03-06T05:56:53.047Z,11.90
2023-03-06T05:59:19.793Z,11.35
2023-03-06T06:01:46.483Z,11.65
2023-03-06T06:04:13.180Z,12.32
2023-03-06T06:06:39.873Z,12.48
2023-03-06T06:09:06.692Z,13.32
2023-03-06T06:11:33.364Z,11.77
2023-03-06T06:14:00.062Z,13.20
2023-03-06T06:16:26.776Z,13.63
2023-03-06T06:18:53.414Z,13.10
2023-03-06T06:21:20.700Z,12.52
2023-03-06T06:23:47.504Z,13.20
2023-03-06T06:26:14.321Z,14.00
2023-03-06T06:28:41.013Z,12.68
2023-03-06T06:31:10.401Z,13.75
2023-03-06T06:33:37.122Z,13.75
2023-03-06T06:36:04.057Z,12.95
2023-03-06T06:38:30.841Z,13.20
2023-03-06T06:41:27.145Z,11.70
2023-03-06T06:43:44.266Z,12.82
2023-03-06T06:46:47.184Z,13.00
2023-03-06T06:48:58.522Z,12.25
2023-03-06T06:51:25.216Z,13.13
2023-03-06T06:53:52.120Z,12.15
2023-03-06T06:56:18.818Z,12.40
2023-03-06T06:58:45.520Z,13.90
2023-03-06T07:01:13.136Z,13.77
2023-03-06T07:03:40.759Z,13.68
2023-03-06T07:06:07.426Z,12.38
2023-03-06T07:08:34.183Z,13.52
2023-03-06T07:11:06.108Z,13.27
2023-03-06T07:13:32.752Z,13.55
2023-03-06T07:15:59.481Z,13.73
2023-03-06T07:18:26.200Z,14.05
2023-03-06T07:20:56.719Z,13.77
2023-03-06T07:23:24.816Z,12.70
2023-03-06T07:25:51.511Z,13.52
2023-03-06T07:28:19.555Z,14.40
2023-03-06T07:30:46.356Z,13.35
2023-03-06T07:33:13.476Z,15.18
2023-03-06T07:35:41.495Z,14.90
2023-03-06T07:38:09.070Z,15.90
2023-03-06T07:40:35.865Z,15.25
2023-03-06T07:43:18.416Z,14.63
2023-03-06T07:45:59.973Z,14.10
2023-03-06T07:48:27.487Z,16.95
2023-03-06T07:51:00.253Z,13.55
2023-03-06T07:53:27.187Z,12.52
2023-03-06T07:55:53.879Z,13.95
2023-03-06T07:58:20.870Z,13.75
2023-03-06T08:00:47.960Z,13.75
2023-03-06T08:03:14.980Z,14.10
2023-03-06T08:05:41.953Z,13.50
2023-03-06T08:08:08.787Z,12.93
2023-03-06T08:10:35.544Z,13.85
2023-03-06T08:13:02.249Z,13.68
2023-03-06T08:15:28.934Z,13.35
2023-03-06T08:17:55.747Z,12.93
2023-03-06T08:20:22.497Z,12.68
2023-03-06T08:22:49.170Z,12.57
2023-03-06T08:25:16.033Z,12.70
2023-03-06T08:27:43.258Z,12.52
2023-03-06T08:30:10.520Z,12.95
2023-03-06T08:32:37.482Z,11.65
2023-03-06T08:35:05.141Z,13.02
2023-03-06T08:37:31.959Z,11.75
2023-03-06T08:39:58.841Z,11.60
2023-03-06T08:42:25.546Z,12.65
2023-03-06T08:44:52.270Z,11.38
2023-03-06T08:47:19.062Z,12.50
2023-03-06T08:49:45.868Z,11.48
2023-03-06T08:52:12.702Z,11.55
2023-03-06T08:54:39.670Z,10.80
2023-03-06T08:57:06.837Z,9.63
2023-03-06T08:59:33.666Z,10.15
2023-03-06T09:02:00.488Z,10.65
2023-03-06T09:04:29.948Z,10.07
2023-03-06T09:06:56.708Z,10.75
2023-03-06T09:09:23.406Z,10.63
2023-03-06T09:11:51.216Z,9.98
2023-03-06T09:14:17.932Z,10.00
2023-03-06T09:16:44.643Z,10.13
2023-03-06T09:19:11.402Z,11.05
2023-03-06T09:21:38.094Z,10.88
2023-03-06T09:24:04.896Z,10.68
2023-03-06T09:26:45.074Z,11.50
2023-03-06T09:29:13.101Z,10.32
2023-03-06T09:31:39.871Z,10.88
2023-03-06T09:34:06.576Z,9.40
2023-03-06T09:36:42.735Z,9.95
2023-03-06T09:39:16.136Z,9.80
2023-03-06T09:41:43.085Z,10.35
2023-03-06T09:44:26.130Z,10.50
2023-03-06T09:47:15.342Z,10.55
2023-03-06T09:50:05.557Z,10.63
2023-03-06T09:53:02.747Z,9.95
2023-03-06T09:55:32.804Z,11.52
2023-03-06T09:58:21.420Z,10.60
2023-03-06T10:01:02.804Z,11.32
2023-03-06T10:03:51.080Z,10.57
2023-03-06T10:06:31.366Z,10.82
2023-03-06T10:08:59.035Z,11.73
2023-03-06T10:11:34.756Z,11.13
2023-03-06T10:14:16.397Z,11.50
2023-03-06T10:16:43.109Z,10.68
2023-03-06T10:19:15.903Z,10.90
2023-03-06T10:21:53.447Z,11.18
2023-03-06T10:24:47.325Z,10.75
2023-03-06T10:27:46.709Z,11.05
2023-03-06T10:30:51.032Z,11.77
2023-03-06T10:33:46.668Z,12.00
2023-03-06T10:36:18.304Z,11.50
2023-03-06T10:38:45.850Z,10.85
2023-03-06T10:41:12.535Z,11.35
2023-03-06T10:43:43.249Z,9.98
2023-03-06T10:46:12.995Z,9.98
2023-03-06T10:48:42.318Z,11.48
2023-03-06T10:51:18.591Z,10.77
2023-03-06T10:54:14.130Z,10.90
2023-03-06T10:56:45.457Z,12.05
2023-03-06T10:59:13.021Z,11.25
2023-03-06T11:01:42.290Z,11.20
2023-03-06T11:04:21.951Z,11.55
2023-03-06T11:06:49.328Z,10.90
2023-03-06T11:09:18.630Z,11.32
2023-03-06T11:11:45.259Z,10.60
2023-03-06T11:14:17.897Z,10.60
2023-03-06T11:16:53.077Z,11.13
2023-03-06T11:19:23.977Z,10.82
2023-03-06T11:22:30.589Z,11.18
2023-03-06T11:24:58.378Z,11.20
2023-03-06T11:27:34.528Z,12.40
2023-03-06T11:30:11.106Z,11.77
2023-03-06T11:32:52.392Z,12.25
2023-03-06T11:35:29.061Z,12.55
2023-03-06T11:38:00.765Z,13.88
2023-03-06T11:40:59.257Z,13.80
2023-03-06T11:43:55.914Z,12.45
2023-03-06T11:46:22.930Z,12.68
2023-03-06T11:48:53.595Z,11.45
2023-03-06T11:51:40.378Z,12.75
2023-03-06T11:54:09.610Z,13.43
2023-03-06T11:56:53.843Z,12.55
2023-03-06T11:59:33.551Z,12.48
2023-03-06T12:02:51.737Z,12.00
2023-03-06T12:05:26.443Z,11.60
2023-03-06T12:08:20.095Z,12.85
2023-03-06T12:11:13.470Z,11.55
2023-03-06T12:13:48.111Z,12.52
2023-03-06T12:16:52.623Z,13.43
2023-03-06T12:26:22.265Z,13.60
2023-03-06T12:45:03.962Z,12.52
2023-03-06T12:47:34.298Z,13.50
2023-03-06T12:50:13.620Z,13.50
2023-03-06T12:52:41.410Z,12.48
2023-03-06T12:55:13.247Z,13.85
2023-03-06T12:57:41.690Z,13.48
2023-03-06T13:00:29.991Z,14.73
2023-03-06T13:03:15.166Z,14.70
2023-03-06T13:05:56.696Z,15.95
2023-03-06T13:08:33.860Z,15.15
2023-03-06T13:11:22.039Z,14.77
2023-03-06T13:13:48.910Z,14.07
2023-03-06T13:16:18.329Z,14.38
2023-03-06T13:18:49.120Z,15.70
2023-03-06T13:21:41.828Z,14.85
2023-03-06T13:24:31.721Z,13.48
2023-03-06T13:27:02.863Z,14.48
2023-03-06T13:29:50.654Z,16.02
2023-03-06T13:32:19.398Z,14.00
2023-03-06T13:34:48.552Z,14.65
2023-03-06T13:37:22.961Z,14.57
2023-03-06T13:39:55.666Z,14.73
2023-03-06T13:42:42.082Z,14.77
2023-03-06T13:45:32.451Z,14.88
2023-03-06T13:48:27.229Z,15.50
2023-03-06T13:50:48.155Z,14.70
2023-03-06T13:53:20.821Z,16.15
2023-03-06T13:56:06.362Z,14.23
2023-03-06T13:58:53.043Z,15.93
2023-03-06T14:01:53.860Z,14.57
2023-03-06T14:04:27.165Z,13.02
2023-03-06T14:09:44.585Z,15.25
2023-03-06T14:12:23.606Z,14.52
2023-03-06T14:14:56.767Z,14.73
2023-03-06T14:17:49.228Z,13.95
2023-03-06T14:20:18.713Z,14.52
2023-03-06T14:22:45.439Z,13.77
2023-03-06T14:25:24.164Z,14.75
2023-03-06T14:27:53.558Z,15.38
2023-03-06T14:30:25.230Z,15.02
2023-03-06T14:32:54.157Z,15.60
2023-03-06T14:35:28.179Z,14.00
2023-03-06T14:38:01.548Z,14.88
2023-03-06T14:43:21.992Z,12.70
2023-03-06T14:45:56.146Z,12.60
2023-03-06T14:48:27.107Z,13.65
2023-03-06T14:50:57.705Z,12.85
2023-03-06T14:53:28.414Z,12.60
2023-03-06T14:55:57.977Z,13.27
2023-03-06T14:58:49.736Z,12.13
2023-03-06T15:01:16.859Z,12.35
2023-03-06T15:03:55.295Z,14.02
2023-03-06T15:06:38.886Z,12.40
2023-03-06T15:09:16.845Z,14.35
2023-03-06T15:12:03.059Z,13.15
2023-03-06T15:14:36.320Z,12.68
2023-03-06T15:19:41.902Z,12.43
2023-03-06T15:22:27.236Z,13.88
2023-03-06T15:24:54.453Z,12.60
2023-03-06T15:27:27.404Z,12.90
2023-03-06T15:30:13.112Z,15.30
2023-03-06T15:32:42.501Z,13.50
2023-03-06T15:35:24.521Z,12.77
2023-03-06T15:37:52.295Z,13.23
2023-03-06T15:40:21.925Z,12.98
2023-03-06T15:42:52.119Z,15.98
2023-03-06T15:45:21.726Z,14.43
2023-03-06T15:47:50.325Z,18.13
2023-03-06T15:50:26.297Z,15.90
2023-03-06T15:52:53.464Z,14.57
2023-03-06T15:55:25.529Z,14.30
2023-03-06T15:57:57.498Z,16.65
2023-03-06T16:00:29.847Z,15.27
2023-03-06T16:02:57.989Z,15.03
2023-03-06T16:05:26.292Z,15.57
2023-03-06T16:07:53.120Z,14.35
2023-03-06T16:10:23.720Z,14.73
2023-03-06T16:13:02.285Z,14.88
2023-03-06T16:15:29.553Z,15.95
2023-03-06T16:18:00.111Z,17.38
2023-03-06T16:20:28.139Z,17.77
2023-03-06T16:22:54.957Z,20.92
2023-03-06T16:25:24.080Z,19.00
2023-03-06T16:27:55.448Z,17.70
2023-03-06T16:30:23.169Z,15.85
2023-03-06T16:32:49.842Z,17.60
2023-03-06T16:35:20.132Z,18.15
2023-03-06T16:37:47.296Z,17.98
2023-03-06T16:40:22.162Z,16.17
2023-03-06T16:42:49.965Z,16.30
2023-03-06T16:45:18.240Z,15.57
2023-03-06T16:47:46.241Z,15.38
2023-03-06T16:50:24.415Z,17.30
2023-03-06T16:52:52.401Z,17.80
2023-03-06T16:55:19.416Z,18.70
2023-03-06T16:57:46.554Z,17.75
2023-03-06T17:00:14.062Z,16.77
2023-03-06T17:02:40.746Z,17.27
2023-03-06T17:05:09.276Z,19.05
2023-03-06T17:07:37.470Z,17.70
2023-03-06T17:10:05.449Z,16.83
2023-03-06T17:12:32.158Z,16.80
2023-03-06T17:14:58.878Z,17.65
2023-03-06T17:17:25.600Z,17.88
2023-03-06T17:19:52.740Z,16.42
2023-03-06T17:22:19.987Z,16.38
2023-03-06T17:24:52.088Z,15.80
2023-03-06T17:27:21.166Z,16.10
2023-03-06T17:29:48.353Z,16.70
2023-03-06T17:32:15.203Z,16.05
2023-03-06T17:34:42.122Z,14.95
2023-03-06T17:37:09.242Z,16.42
2023-03-06T17:39:37.625Z,17.65
2023-03-06T17:42:05.462Z,17.38
2023-03-06T17:44:34.574Z,16.80
2023-03-06T17:47:02.009Z,16.75
2023-03-06T17:49:28.888Z,17.08
2023-03-06T17:51:56.924Z,17.17
2023-03-06T17:54:26.150Z,16.88
2023-03-06T17:56:53.688Z,18.45
2023-03-06T17:59:20.423Z,17.48
2023-03-06T18:01:47.311Z,23.45
2023-03-06T18:04:14.098Z,24.83
2023-03-06T18:06:40.801Z,23.23
2023-03-06T18:09:09.966Z,23.23
2023-03-06T18:11:37.419Z,23.83
2023-03-06T18:14:05.532Z,24.02
2023-03-06T18:16:32.511Z,25.63
2023-03-06T18:18:59.358Z,19.15
2023-03-06T18:21:26.309Z,17.20
2023-03-06T18:23:53.276Z,19.27
2023-03-06T18:26:23.164Z,18.55
2023-03-06T18:28:54.366Z,17.48
2023-03-06T18:31:30.471Z,18.80
2023-03-06T18:34:00.121Z,16.45
2023-03-06T18:36:29.376Z,15.32
2023-03-06T18:38:56.541Z,16.60
2023-03-06T18:41:23.465Z,15.23
2023-03-06T18:43:59.127Z,15.82
2023-03-06T18:46:30.009Z,16.30
2023-03-06T18:48:56.763Z,15.68
2023-03-06T18:51:25.619Z,16.30
2023-03-06T18:53:52.314Z,14.45
2023-03-06T18:56:21.647Z,16.23
2023-03-06T18:58:48.911Z,15.07
2023-03-06T19:01:15.724Z,15.30
2023-03-06T19:03:42.912Z,14.57
2023-03-06T19:06:12.184Z,14.60
2023-03-06T19:08:39.838Z,14.93
2023-03-06T19:11:08.900Z,17.90
2023-03-06T19:13:36.008Z,15.55
2023-03-06T19:16:03.199Z,15.98
2023-03-06T19:18:30.316Z,15.80
2023-03-06T19:21:08.412Z,17.45
2023-03-06T19:23:35.154Z,16.52
2023-03-06T19:26:01.944Z,16.52
2023-03-06T19:28:28.785Z,15.38
2023-03-06T19:30:55.872Z,14.52
2023-03-06T19:33:22.744Z,15.48
2023-03-06T19:35:49.599Z,16.73
2023-03-06T19:38:16.473Z,18.75
2023-03-06T19:40:50.112Z,18.42
2023-03-06T19:43:17.037Z,18.15
2023-03-06T19:45:44.579Z,15.52
2023-03-06T19:48:12.564Z,14.50
2023-03-06T19:50:40.250Z,14.73
2023-03-06T19:53:07.843Z,14.25
2023-03-06T19:55:34.818Z,14.23
2023-03-06T19:58:01.502Z,18.25
2023-03-06T20:00:28.439Z,19.42
2023-03-06T20:02:55.713Z,18.92
2023-03-06T20:05:22.520Z,17.42
2023-03-06T20:07:49.963Z,17.50
2023-03-06T20:10:17.132Z,17.35
2023-03-06T20:12:44.030Z,17.95
2023-03-06T20:15:11.011Z,16.55
2023-03-06T20:17:40.524Z,18.00
2023-03-06T20:20:09.623Z,18.77
2023-03-06T20:22:36.410Z,16.60
2023-03-06T20:25:03.772Z,17.35
2023-03-06T20:27:30.469Z,15.93
2023-03-06T20:29:57.312Z,14.95
2023-03-06T20:32:24.059Z,13.73
2023-03-06T20:34:50.904Z,14.50
2023-03-06T20:37:17.611Z,14.88
2023-03-06T20:39:44.709Z,13.90
2023-03-06T20:42:11.506Z,15.57
2023-03-06T20:44:38.302Z,14.15
2023-03-06T20:47:05.636Z,14.38
2023-03-06T20:49:32.463Z,14.05
2023-03-06T20:51:59.176Z,13.85
2023-03-06T20:54:25.939Z,13.55
2023-03-06T20:56:52.626Z,13.45
2023-03-06T20:59:19.440Z,14.73
2023-03-06T21:01:47.908Z,13.50
2023-03-06T21:04:15.214Z,13.45
2023-03-06T21:06:46.145Z,13.30
2023-03-06T21:09:14.817Z,13.98
2023-03-06T21:11:41.591Z,13.50
2023-03-06T21:14:08.361Z,13.80
2023-03-06T21:16:35.924Z,13.10
2023-03-06T21:19:02.745Z,12.80
2023-03-06T21:21:31.855Z,13.73
2023-03-06T21:24:01.038Z,14.45
2023-03-06T21:26:30.126Z,13.38
2023-03-06T21:28:58.774Z,14.25
2023-03-06T21:31:26.229Z,12.98
2023-03-06T21:33:53.002Z,13.80
2023-03-06T21:36:21.670Z,12.40
2023-03-06T21:38:49.948Z,12.68
2023-03-06T21:41:24.123Z,13.35
2023-03-06T21:44:02.134Z,16.40
2023-03-06T21:46:29.070Z,15.13
2023-03-06T21:48:56.215Z,13.98
2023-03-06T21:51:23.681Z,16.20
2023-03-06T21:53:51.265Z,15.75
2023-03-06T21:56:19.954Z,16.30
2023-03-06T21:58:47.127Z,16.63
2023-03-06T22:01:17.234Z,18.75
2023-03-06T22:03:44.133Z,20.17
2023-03-06T22:06:12.949Z,18.50
2023-03-06T22:08:40.395Z,18.00
2023-03-06T22:11:12.956Z,17.60
2023-03-06T22:13:39.910Z,16.48
2023-03-06T22:16:06.913Z,16.17
2023-03-06T22:18:33.912Z,14.90
2023-03-06T22:21:00.672Z,15.65
2023-03-06T22:23:27.461Z,15.23
2023-03-06T22:25:54.377Z,14.95
2023-03-06T22:28:21.128Z,14.88
2023-03-06T22:30:48.162Z,16.27
2023-03-06T22:33:14.850Z,15.35
2023-03-06T22:35:41.604Z,15.70
2023-03-06T22:38:08.497Z,15.25
2023-03-06T22:40:35.343Z,14.82
2023-03-06T22:43:02.406Z,14.05
2023-03-06T22:45:29.406Z,15.95
2023-03-06T22:48:05.581Z,17.08
2023-03-06T22:50:37.201Z,14.98
2023-03-06T22:53:03.858Z,15.35
2023-03-06T22:55:30.660Z,14.40
2023-03-06T22:57:57.518Z,16.23
2023-03-06T23:00:25.601Z,16.15
2023-03-06T23:02:52.682Z,16.40
2023-03-06T23:05:19.391Z,15.05
2023-03-06T23:07:46.107Z,16.58
2023-03-06T23:10:12.946Z,15.73
2023-03-06T23:12:58.295Z,16.17
2023-03-06T23:15:44.008Z,14.82
2023-03-06T23:18:30.191Z,14.48
2023-03-06T23:21:17.386Z,15.43
2023-03-06T23:24:02.987Z,15.50
2023-03-06T23:26:30.801Z,14.50
2023-03-06T23:28:58.002Z,15.80
2023-03-06T23:31:28.779Z,15.75
2023-03-06T23:34:00.558Z,14.70
2023-03-06T23:36:27.859Z,16.00
2023-03-06T23:38:54.907Z,14.80
2023-03-06T23:41:22.985Z,15.25
2023-03-06T23:43:50.002Z,15.90
2023-03-06T23:46:17.148Z,14.10
2023-03-06T23:48:44.605Z,16.33
2023-03-06T23:51:17.776Z,15.45
2023-03-06T23:53:45.440Z,16.40
2023-03-06T23:56:12.138Z,15.80
2023-03-06T23:58:39.156Z,14.40
